sensor_id;sensor_type;location;lat;lon;timestamp;P1;durP1;ratioP1;P2;durP2;ratioP2
29466;SDS011;60968;37.490;-122.288;2022-07-24T00:02:54;2.73;;;1.70;;
29466;SDS011;60968;37.490;-122.288;2022-07-24T00:05:55;3.73;;;2.30;;
29466;SDS011;60968;37.490;-122.288;2022-07-24T00:08:56;3.57;;;2.33;;
29466;SDS011;60968;37.490;-122.288;2022-07-24T00:11:56;7.80;;;2.37;;
29466;SDS011;60968;37.490;-122.288;2022-07-24T00:14:58;6.53;;;2.50;;
29466;SDS011;60968;37.490;-122.288;2022-07-24T00:17:58;6.23;;;2.17;;
29466;SDS011;60968;37.490;-122.288;2022-07-24T00:20:59;6.60;;;2.20;;
29466;SDS011;60968;37.490;-122.288;2022-07-24T00:24:00;4.00;;;2.37;;
29466;SDS011;60968;37.490;-122.288;2022-07-24T00:27:02;5.93;;;2.70;;
29466;SDS011;60968;37.490;-122.288;2022-07-24T00:30:03;5.83;;;2.33;;
29466;SDS011;60968;37.490;-122.288;2022-07-24T00:33:05;7.67;;;2.57;;
29466;SDS011;60968;37.490;-122.288;2022-07-24T00:36:06;4.17;;;2.20;;
29466;SDS011;60968;37.490;-122.288;2022-07-24T00:39:07;6.17;;;2.17;;
29466;SDS011;60968;37.490;-122.288;2022-07-24T00:42:08;5.33;;;2.40;;
29466;SDS011;60968;37.490;-122.288;2022-07-24T00:45:09;7.50;;;2.60;;
29466;SDS011;60968;37.490;-122.288;2022-07-24T00:48:11;5.07;;;2.60;;
29466;SDS011;60968;37.490;-122.288;2022-07-24T00:51:12;7.33;;;2.60;;
29466;SDS011;60968;37.490;-122.288;2022-07-24T00:54:15;4.70;;;2.53;;
29466;SDS011;60968;37.490;-122.288;2022-07-24T00:57:17;9.20;;;2.47;;
29466;SDS011;60968;37.490;-122.288;2022-07-24T01:00:19;6.53;;;2.80;;
29466;SDS011;60968;37.490;-122.288;2022-07-24T01:03:21;7.70;;;2.90;;
29466;SDS011;60968;37.490;-122.288;2022-07-24T01:06:22;12.10;;;3.70;;
29466;SDS011;60968;37.490;-122.288;2022-07-24T01:09:23;8.20;;;3.27;;
29466;SDS011;60968;37.490;-122.288;2022-07-24T01:12:24;8.23;;;2.87;;
29466;SDS011;60968;37.490;-122.288;2022-07-24T01:15:26;9.50;;;4.00;;
29466;SDS011;60968;37.490;-122.288;2022-07-24T01:18:27;8.23;;;3.23;;
29466;SDS011;60968;37.490;-122.288;2022-07-24T01:21:28;7.33;;;2.90;;
29466;SDS011;60968;37.490;-122.288;2022-07-24T01:24:29;9.10;;;2.93;;
29466;SDS011;60968;37.490;-122.288;2022-07-24T01:27:30;7.30;;;2.93;;
29466;SDS011;60968;37.490;-122.288;2022-07-24T01:30:31;7.37;;;3.00;;
29466;SDS011;60968;37.490;-122.288;2022-07-24T01:33:33;7.43;;;3.00;;
29466;SDS011;60968;37.490;-122.288;2022-07-24T01:36:34;8.80;;;3.10;;
29466;SDS011;60968;37.490;-122.288;2022-07-24T01:39:36;9.70;;;3.00;;
29466;SDS011;60968;37.490;-122.288;2022-07-24T01:42:37;6.37;;;2.60;;
29466;SDS011;60968;37.490;-122.288;2022-07-24T01:45:38;7.60;;;3.00;;
29466;SDS011;60968;37.490;-122.288;2022-07-24T01:48:40;12.93;;;3.43;;
29466;SDS011;60968;37.490;-122.288;2022-07-24T01:51:42;7.03;;;2.80;;
29466;SDS011;60968;37.490;-122.288;2022-07-24T01:54:43;5.10;;;2.87;;
29466;SDS011;60968;37.490;-122.288;2022-07-24T01:57:43;7.53;;;2.83;;
29466;SDS011;60968;37.490;-122.288;2022-07-24T02:00:44;7.93;;;3.20;;
29466;SDS011;60968;37.490;-122.288;2022-07-24T02:03:46;12.97;;;3.20;;
29466;SDS011;60968;37.490;-122.288;2022-07-24T02:06:47;8.00;;;3.60;;
29466;SDS011;60968;37.490;-122.288;2022-07-24T02:09:48;8.37;;;3.53;;
29466;SDS011;60968;37.490;-122.288;2022-07-24T02:12:48;7.20;;;3.77;;
29466;SDS011;60968;37.490;-122.288;2022-07-24T02:15:50;5.57;;;2.83;;
29466;SDS011;60968;37.490;-122.288;2022-07-24T02:18:51;9.13;;;3.03;;
29466;SDS011;60968;37.490;-122.288;2022-07-24T02:21:52;9.97;;;3.63;;
29466;SDS011;60968;37.490;-122.288;2022-07-24T02:24:53;7.40;;;2.93;;
29466;SDS011;60968;37.490;-122.288;2022-07-24T02:27:54;9.83;;;3.60;;
29466;SDS011;60968;37.490;-122.288;2022-07-24T02:30:55;10.90;;;3.47;;
29466;SDS011;60968;37.490;-122.288;2022-07-24T02:33:55;8.30;;;3.17;;
29466;SDS011;60968;37.490;-122.288;2022-07-24T02:36:56;8.10;;;3.73;;
29466;SDS011;60968;37.490;-122.288;2022-07-24T02:39:57;9.13;;;3.50;;
29466;SDS011;60968;37.490;-122.288;2022-07-24T02:42:58;8.63;;;3.53;;
29466;SDS011;60968;37.490;-122.288;2022-07-24T02:45:59;8.97;;;3.33;;
29466;SDS011;60968;37.490;-122.288;2022-07-24T02:48:59;9.87;;;3.30;;
29466;SDS011;60968;37.490;-122.288;2022-07-24T02:52:00;8.57;;;3.37;;
29466;SDS011;60968;37.490;-122.288;2022-07-24T02:55:02;9.67;;;3.20;;
29466;SDS011;60968;37.490;-122.288;2022-07-24T02:58:03;12.40;;;3.83;;
29466;SDS011;60968;37.490;-122.288;2022-07-24T03:01:04;7.20;;;2.93;;
29466;SDS011;60968;37.490;-122.288;2022-07-24T03:04:05;9.10;;;3.50;;
29466;SDS011;60968;37.490;-122.288;2022-07-24T03:07:06;8.43;;;3.40;;
29466;SDS011;60968;37.490;-122.288;2022-07-24T03:10:08;13.30;;;3.60;;
29466;SDS011;60968;37.490;-122.288;2022-07-24T03:13:10;10.50;;;3.77;;
29466;SDS011;60968;37.490;-122.288;2022-07-24T03:16:13;9.40;;;3.20;;
29466;SDS011;60968;37.490;-122.288;2022-07-24T03:19:14;7.63;;;3.30;;
29466;SDS011;60968;37.490;-122.288;2022-07-24T03:22:15;8.13;;;3.30;;
29466;SDS011;60968;37.490;-122.288;2022-07-24T03:25:15;6.83;;;3.27;;
29466;SDS011;60968;37.490;-122.288;2022-07-24T03:28:17;7.60;;;3.40;;
29466;SDS011;60968;37.490;-122.288;2022-07-24T03:31:17;10.57;;;4.10;;
29466;SDS011;60968;37.490;-122.288;2022-07-24T03:34:18;9.63;;;3.57;;
29466;SDS011;60968;37.490;-122.288;2022-07-24T03:37:19;10.67;;;4.13;;
29466;SDS011;60968;37.490;-122.288;2022-07-24T03:40:20;8.87;;;3.50;;
29466;SDS011;60968;37.490;-122.288;2022-07-24T03:43:21;9.53;;;3.77;;
29466;SDS011;60968;37.490;-122.288;2022-07-24T03:46:22;12.03;;;3.60;;
29466;SDS011;60968;37.490;-122.288;2022-07-24T03:49:23;13.77;;;4.13;;
29466;SDS011;60968;37.490;-122.288;2022-07-24T03:52:23;11.57;;;3.80;;
29466;SDS011;60968;37.490;-122.288;2022-07-24T03:55:26;10.53;;;4.07;;
29466;SDS011;60968;37.490;-122.288;2022-07-24T03:58:27;12.63;;;4.20;;
29466;SDS011;60968;37.490;-122.288;2022-07-24T04:01:28;9.53;;;4.07;;
29466;SDS011;60968;37.490;-122.288;2022-07-24T04:04:28;17.73;;;4.57;;
29466;SDS011;60968;37.490;-122.288;2022-07-24T04:07:29;11.93;;;4.20;;
29466;SDS011;60968;37.490;-122.288;2022-07-24T04:10:30;15.10;;;4.07;;
29466;SDS011;60968;37.490;-122.288;2022-07-24T04:13:31;9.73;;;3.57;;
29466;SDS011;60968;37.490;-122.288;2022-07-24T04:16:32;11.63;;;3.77;;
29466;SDS011;60968;37.490;-122.288;2022-07-24T04:19:33;10.17;;;3.43;;
29466;SDS011;60968;37.490;-122.288;2022-07-24T04:22:34;13.43;;;4.07;;
29466;SDS011;60968;37.490;-122.288;2022-07-24T04:25:34;13.13;;;4.00;;
29466;SDS011;60968;37.490;-122.288;2022-07-24T04:28:35;12.70;;;3.57;;
29466;SDS011;60968;37.490;-122.288;2022-07-24T04:31:36;14.23;;;4.50;;
29466;SDS011;60968;37.490;-122.288;2022-07-24T04:34:37;11.90;;;3.40;;
29466;SDS011;60968;37.490;-122.288;2022-07-24T04:37:38;9.40;;;3.53;;
29466;SDS011;60968;37.490;-122.288;2022-07-24T04:40:39;15.77;;;3.77;;
29466;SDS011;60968;37.490;-122.288;2022-07-24T04:43:40;13.77;;;4.07;;
29466;SDS011;60968;37.490;-122.288;2022-07-24T04:46:41;10.17;;;4.20;;
29466;SDS011;60968;37.490;-122.288;2022-07-24T04:49:42;10.57;;;3.87;;
29466;SDS011;60968;37.490;-122.288;2022-07-24T04:52:43;14.63;;;4.47;;
29466;SDS011;60968;37.490;-122.288;2022-07-24T04:55:44;11.30;;;3.97;;
29466;SDS011;60968;37.490;-122.288;2022-07-24T04:58:44;14.17;;;4.03;;
29466;SDS011;60968;37.490;-122.288;2022-07-24T05:01:46;12.80;;;3.93;;
29466;SDS011;60968;37.490;-122.288;2022-07-24T05:04:46;11.33;;;4.17;;
29466;SDS011;60968;37.490;-122.288;2022-07-24T05:07:47;15.23;;;4.07;;
29466;SDS011;60968;37.490;-122.288;2022-07-24T05:10:48;12.50;;;4.23;;
29466;SDS011;60968;37.490;-122.288;2022-07-24T05:13:49;12.60;;;4.20;;
29466;SDS011;60968;37.490;-122.288;2022-07-24T05:16:50;10.87;;;4.30;;
29466;SDS011;60968;37.490;-122.288;2022-07-24T05:19:51;17.37;;;4.80;;
29466;SDS011;60968;37.490;-122.288;2022-07-24T05:22:51;15.07;;;4.80;;
29466;SDS011;60968;37.490;-122.288;2022-07-24T05:25:52;13.03;;;4.53;;
29466;SDS011;60968;37.490;-122.288;2022-07-24T05:28:53;15.43;;;4.60;;
29466;SDS011;60968;37.490;-122.288;2022-07-24T05:31:54;10.80;;;4.00;;
29466;SDS011;60968;37.490;-122.288;2022-07-24T05:34:55;9.97;;;4.30;;
29466;SDS011;60968;37.490;-122.288;2022-07-24T05:37:56;12.67;;;4.53;;
29466;SDS011;60968;37.490;-122.288;2022-07-24T05:40:57;12.37;;;4.17;;
29466;SDS011;60968;37.490;-122.288;2022-07-24T05:43:57;13.17;;;4.60;;
29466;SDS011;60968;37.490;-122.288;2022-07-24T05:46:58;12.87;;;4.40;;
29466;SDS011;60968;37.490;-122.288;2022-07-24T05:49:59;14.03;;;5.40;;
29466;SDS011;60968;37.490;-122.288;2022-07-24T05:53:00;16.07;;;4.73;;
29466;SDS011;60968;37.490;-122.288;2022-07-24T05:56:01;14.83;;;4.90;;
29466;SDS011;60968;37.490;-122.288;2022-07-24T05:59:01;14.97;;;4.13;;
29466;SDS011;60968;37.490;-122.288;2022-07-24T06:02:03;10.70;;;3.50;;
29466;SDS011;60968;37.490;-122.288;2022-07-24T06:05:03;7.57;;;3.90;;
29466;SDS011;60968;37.490;-122.288;2022-07-24T06:08:06;14.23;;;4.80;;
29466;SDS011;60968;37.490;-122.288;2022-07-24T06:11:06;11.47;;;4.30;;
29466;SDS011;60968;37.490;-122.288;2022-07-24T06:14:07;11.90;;;3.90;;
29466;SDS011;60968;37.490;-122.288;2022-07-24T06:17:08;14.90;;;3.90;;
29466;SDS011;60968;37.490;-122.288;2022-07-24T06:20:10;10.47;;;3.57;;
29466;SDS011;60968;37.490;-122.288;2022-07-24T06:23:11;16.13;;;4.87;;
29466;SDS011;60968;37.490;-122.288;2022-07-24T06:26:13;12.90;;;3.70;;
29466;SDS011;60968;37.490;-122.288;2022-07-24T06:29:13;12.77;;;4.07;;
29466;SDS011;60968;37.490;-122.288;2022-07-24T06:32:14;12.60;;;4.33;;
29466;SDS011;60968;37.490;-122.288;2022-07-24T06:35:19;13.63;;;4.77;;
29466;SDS011;60968;37.490;-122.288;2022-07-24T06:38:20;17.00;;;4.93;;
29466;SDS011;60968;37.490;-122.288;2022-07-24T06:41:21;17.17;;;4.53;;
29466;SDS011;60968;37.490;-122.288;2022-07-24T06:44:22;14.30;;;4.60;;
29466;SDS011;60968;37.490;-122.288;2022-07-24T06:47:22;15.93;;;4.40;;
29466;SDS011;60968;37.490;-122.288;2022-07-24T06:50:23;13.67;;;5.03;;
29466;SDS011;60968;37.490;-122.288;2022-07-24T06:53:24;23.83;;;4.77;;
29466;SDS011;60968;37.490;-122.288;2022-07-24T06:56:25;15.23;;;4.53;;
29466;SDS011;60968;37.490;-122.288;2022-07-24T06:59:26;13.27;;;4.43;;
29466;SDS011;60968;37.490;-122.288;2022-07-24T07:02:27;18.07;;;4.70;;
29466;SDS011;60968;37.490;-122.288;2022-07-24T07:05:27;14.00;;;4.90;;
29466;SDS011;60968;37.490;-122.288;2022-07-24T07:08:28;13.70;;;4.80;;
29466;SDS011;60968;37.490;-122.288;2022-07-24T07:11:29;14.47;;;4.67;;
29466;SDS011;60968;37.490;-122.288;2022-07-24T07:14:30;15.00;;;4.80;;
29466;SDS011;60968;37.490;-122.288;2022-07-24T07:17:31;17.73;;;4.77;;
29466;SDS011;60968;37.490;-122.288;2022-07-24T07:20:32;16.97;;;4.97;;
29466;SDS011;60968;37.490;-122.288;2022-07-24T07:23:33;18.57;;;5.53;;
29466;SDS011;60968;37.490;-122.288;2022-07-24T07:26:34;14.07;;;4.97;;
29466;SDS011;60968;37.490;-122.288;2022-07-24T07:29:34;14.60;;;4.60;;
29466;SDS011;60968;37.490;-122.288;2022-07-24T07:32:35;16.50;;;5.27;;
29466;SDS011;60968;37.490;-122.288;2022-07-24T07:35:36;21.77;;;5.07;;
29466;SDS011;60968;37.490;-122.288;2022-07-24T07:38:37;22.13;;;6.10;;
29466;SDS011;60968;37.490;-122.288;2022-07-24T07:41:38;17.60;;;6.67;;
29466;SDS011;60968;37.490;-122.288;2022-07-24T07:44:39;14.63;;;5.10;;
29466;SDS011;60968;37.490;-122.288;2022-07-24T07:47:40;17.73;;;5.47;;
29466;SDS011;60968;37.490;-122.288;2022-07-24T07:50:41;17.90;;;5.30;;
29466;SDS011;60968;37.490;-122.288;2022-07-24T07:53:41;19.40;;;5.33;;
29466;SDS011;60968;37.490;-122.288;2022-07-24T07:56:42;12.73;;;5.07;;
29466;SDS011;60968;37.490;-122.288;2022-07-24T07:59:43;17.83;;;5.27;;
29466;SDS011;60968;37.490;-122.288;2022-07-24T08:02:44;18.97;;;5.10;;
29466;SDS011;60968;37.490;-122.288;2022-07-24T08:05:45;23.20;;;4.73;;
29466;SDS011;60968;37.490;-122.288;2022-07-24T08:08:46;16.70;;;4.63;;
29466;SDS011;60968;37.490;-122.288;2022-07-24T08:11:46;20.63;;;5.37;;
29466;SDS011;60968;37.490;-122.288;2022-07-24T08:14:47;16.60;;;5.47;;
29466;SDS011;60968;37.490;-122.288;2022-07-24T08:17:51;16.73;;;5.00;;
29466;SDS011;60968;37.490;-122.288;2022-07-24T08:20:53;16.93;;;5.27;;
29466;SDS011;60968;37.490;-122.288;2022-07-24T08:23:54;17.53;;;5.07;;
29466;SDS011;60968;37.490;-122.288;2022-07-24T08:26:55;26.27;;;6.63;;
29466;SDS011;60968;37.490;-122.288;2022-07-24T08:29:56;14.40;;;5.87;;
29466;SDS011;60968;37.490;-122.288;2022-07-24T08:32:57;15.13;;;4.80;;
29466;SDS011;60968;37.490;-122.288;2022-07-24T08:35:58;20.10;;;5.70;;
29466;SDS011;60968;37.490;-122.288;2022-07-24T08:38:59;17.43;;;4.80;;
29466;SDS011;60968;37.490;-122.288;2022-07-24T08:42:00;31.23;;;6.10;;
29466;SDS011;60968;37.490;-122.288;2022-07-24T08:45:00;17.30;;;4.70;;
29466;SDS011;60968;37.490;-122.288;2022-07-24T08:48:02;16.13;;;4.70;;
29466;SDS011;60968;37.490;-122.288;2022-07-24T08:51:04;15.40;;;5.20;;
29466;SDS011;60968;37.490;-122.288;2022-07-24T08:54:05;12.60;;;4.50;;
29466;SDS011;60968;37.490;-122.288;2022-07-24T08:57:07;17.33;;;5.03;;
29466;SDS011;60968;37.490;-122.288;2022-07-24T09:00:08;16.40;;;4.87;;
29466;SDS011;60968;37.490;-122.288;2022-07-24T09:03:09;17.13;;;4.87;;
29466;SDS011;60968;37.490;-122.288;2022-07-24T09:06:10;13.73;;;4.97;;
29466;SDS011;60968;37.490;-122.288;2022-07-24T09:09:12;16.97;;;5.53;;
29466;SDS011;60968;37.490;-122.288;2022-07-24T09:12:16;15.40;;;5.53;;
29466;SDS011;60968;37.490;-122.288;2022-07-24T09:15:18;21.10;;;7.43;;
29466;SDS011;60968;37.490;-122.288;2022-07-24T09:21:35;20.53;;;6.87;;
29466;SDS011;60968;37.490;-122.288;2022-07-24T09:24:37;21.20;;;7.10;;
29466;SDS011;60968;37.490;-122.288;2022-07-24T09:27:39;21.40;;;7.43;;
29466;SDS011;60968;37.490;-122.288;2022-07-24T09:30:53;21.43;;;7.03;;
29466;SDS011;60968;37.490;-122.288;2022-07-24T09:34:04;29.00;;;8.63;;
29466;SDS011;60968;37.490;-122.288;2022-07-24T09:37:09;23.30;;;8.20;;
29466;SDS011;60968;37.490;-122.288;2022-07-24T09:40:10;27.37;;;8.80;;
29466;SDS011;60968;37.490;-122.288;2022-07-24T09:46:29;25.97;;;7.40;;
29466;SDS011;60968;37.490;-122.288;2022-07-24T09:49:30;26.70;;;9.20;;
29466;SDS011;60968;37.490;-122.288;2022-07-24T09:52:34;23.50;;;9.00;;
29466;SDS011;60968;37.490;-122.288;2022-07-24T09:55:36;26.03;;;8.73;;
29466;SDS011;60968;37.490;-122.288;2022-07-24T09:58:47;27.43;;;9.40;;
29466;SDS011;60968;37.490;-122.288;2022-07-24T10:01:52;30.70;;;8.83;;
29466;SDS011;60968;37.490;-122.288;2022-07-24T10:04:56;27.57;;;9.03;;
29466;SDS011;60968;37.490;-122.288;2022-07-24T10:08:01;30.63;;;8.77;;
29466;SDS011;60968;37.490;-122.288;2022-07-24T10:11:04;22.67;;;8.13;;
29466;SDS011;60968;37.490;-122.288;2022-07-24T10:14:05;26.90;;;8.27;;
29466;SDS011;60968;37.490;-122.288;2022-07-24T10:17:06;29.23;;;8.93;;
29466;SDS011;60968;37.490;-122.288;2022-07-24T10:20:09;26.47;;;8.93;;
29466;SDS011;60968;37.490;-122.288;2022-07-24T10:23:46;25.13;;;9.40;;
29466;SDS011;60968;37.490;-122.288;2022-07-24T10:26:57;22.43;;;9.43;;
29466;SDS011;60968;37.490;-122.288;2022-07-24T10:30:06;27.33;;;9.33;;
29466;SDS011;60968;37.490;-122.288;2022-07-24T10:33:08;30.53;;;9.40;;
29466;SDS011;60968;37.490;-122.288;2022-07-24T10:36:15;25.90;;;8.80;;
29466;SDS011;60968;37.490;-122.288;2022-07-24T10:39:21;22.83;;;8.70;;
29466;SDS011;60968;37.490;-122.288;2022-07-24T10:42:28;22.73;;;8.47;;
29466;SDS011;60968;37.490;-122.288;2022-07-24T10:45:29;21.80;;;8.63;;
29466;SDS011;60968;37.490;-122.288;2022-07-24T10:48:31;20.63;;;8.73;;
29466;SDS011;60968;37.490;-122.288;2022-07-24T10:51:34;24.60;;;9.23;;
29466;SDS011;60968;37.490;-122.288;2022-07-24T10:58:21;23.23;;;9.70;;
29466;SDS011;60968;37.490;-122.288;2022-07-24T11:04:34;35.10;;;10.03;;
29466;SDS011;60968;37.490;-122.288;2022-07-24T11:07:35;24.83;;;9.33;;
29466;SDS011;60968;37.490;-122.288;2022-07-24T11:10:52;27.70;;;9.33;;
29466;SDS011;60968;37.490;-122.288;2022-07-24T11:13:55;18.50;;;8.63;;
29466;SDS011;60968;37.490;-122.288;2022-07-24T11:16:56;32.70;;;10.03;;
29466;SDS011;60968;37.490;-122.288;2022-07-24T11:19:57;26.33;;;9.20;;
29466;SDS011;60968;37.490;-122.288;2022-07-24T11:22:58;26.40;;;9.23;;
29466;SDS011;60968;37.490;-122.288;2022-07-24T11:29:38;31.47;;;9.57;;
29466;SDS011;60968;37.490;-122.288;2022-07-24T11:32:41;26.40;;;8.03;;
29466;SDS011;60968;37.490;-122.288;2022-07-24T11:35:42;25.97;;;8.93;;
29466;SDS011;60968;37.490;-122.288;2022-07-24T11:38:43;29.57;;;9.77;;
29466;SDS011;60968;37.490;-122.288;2022-07-24T11:41:45;21.93;;;9.37;;
29466;SDS011;60968;37.490;-122.288;2022-07-24T11:44:47;28.57;;;8.70;;
29466;SDS011;60968;37.490;-122.288;2022-07-24T11:47:50;27.77;;;8.50;;
29466;SDS011;60968;37.490;-122.288;2022-07-24T11:51:01;23.57;;;8.83;;
29466;SDS011;60968;37.490;-122.288;2022-07-24T11:54:03;30.17;;;9.50;;
29466;SDS011;60968;37.490;-122.288;2022-07-24T11:57:04;25.50;;;8.83;;
29466;SDS011;60968;37.490;-122.288;2022-07-24T12:00:16;21.00;;;7.63;;
29466;SDS011;60968;37.490;-122.288;2022-07-24T12:03:19;27.50;;;8.50;;
29466;SDS011;60968;37.490;-122.288;2022-07-24T12:06:21;23.07;;;7.70;;
29466;SDS011;60968;37.490;-122.288;2022-07-24T12:09:22;22.67;;;8.90;;
29466;SDS011;60968;37.490;-122.288;2022-07-24T12:12:30;30.70;;;8.93;;
29466;SDS011;60968;37.490;-122.288;2022-07-24T12:15:32;28.20;;;9.07;;
29466;SDS011;60968;37.490;-122.288;2022-07-24T12:18:38;26.77;;;8.50;;
29466;SDS011;60968;37.490;-122.288;2022-07-24T12:21:39;23.57;;;7.93;;
29466;SDS011;60968;37.490;-122.288;2022-07-24T12:24:40;21.93;;;8.13;;
29466;SDS011;60968;37.490;-122.288;2022-07-24T12:27:42;29.90;;;7.97;;
29466;SDS011;60968;37.490;-122.288;2022-07-24T12:30:45;24.27;;;7.93;;
29466;SDS011;60968;37.490;-122.288;2022-07-24T12:33:53;29.50;;;8.53;;
29466;SDS011;60968;37.490;-122.288;2022-07-24T12:36:54;21.90;;;7.43;;
29466;SDS011;60968;37.490;-122.288;2022-07-24T12:39:55;27.93;;;7.57;;
29466;SDS011;60968;37.490;-122.288;2022-07-24T12:43:00;27.40;;;7.23;;
29466;SDS011;60968;37.490;-122.288;2022-07-24T12:46:08;32.67;;;7.13;;
29466;SDS011;60968;37.490;-122.288;2022-07-24T12:49:16;38.20;;;7.37;;
29466;SDS011;60968;37.490;-122.288;2022-07-24T12:52:18;25.57;;;7.37;;
29466;SDS011;60968;37.490;-122.288;2022-07-24T12:55:21;26.77;;;7.10;;
29466;SDS011;60968;37.490;-122.288;2022-07-24T12:58:21;29.90;;;6.87;;
29466;SDS011;60968;37.490;-122.288;2022-07-24T13:01:23;22.60;;;7.20;;
29466;SDS011;60968;37.490;-122.288;2022-07-24T13:04:27;31.03;;;8.37;;
29466;SDS011;60968;37.490;-122.288;2022-07-24T13:07:28;22.80;;;7.90;;
29466;SDS011;60968;37.490;-122.288;2022-07-24T13:10:29;24.70;;;8.17;;
29466;SDS011;60968;37.490;-122.288;2022-07-24T13:13:29;21.70;;;7.20;;
29466;SDS011;60968;37.490;-122.288;2022-07-24T13:16:31;18.80;;;7.60;;
29466;SDS011;60968;37.490;-122.288;2022-07-24T13:19:33;23.23;;;7.50;;
29466;SDS011;60968;37.490;-122.288;2022-07-24T13:22:34;20.57;;;7.90;;
29466;SDS011;60968;37.490;-122.288;2022-07-24T13:25:34;25.70;;;8.37;;
29466;SDS011;60968;37.490;-122.288;2022-07-24T13:28:35;20.53;;;7.57;;
29466;SDS011;60968;37.490;-122.288;2022-07-24T13:31:36;21.40;;;7.47;;
29466;SDS011;60968;37.490;-122.288;2022-07-24T13:34:37;24.43;;;7.33;;
29466;SDS011;60968;37.490;-122.288;2022-07-24T13:37:38;25.23;;;8.83;;
29466;SDS011;60968;37.490;-122.288;2022-07-24T13:40:39;21.63;;;8.03;;
29466;SDS011;60968;37.490;-122.288;2022-07-24T13:43:40;22.93;;;7.47;;
29466;SDS011;60968;37.490;-122.288;2022-07-24T13:46:41;25.23;;;8.40;;
29466;SDS011;60968;37.490;-122.288;2022-07-24T13:49:42;30.63;;;8.13;;
29466;SDS011;60968;37.490;-122.288;2022-07-24T13:52:43;22.60;;;7.90;;
29466;SDS011;60968;37.490;-122.288;2022-07-24T13:55:44;17.93;;;7.40;;
29466;SDS011;60968;37.490;-122.288;2022-07-24T13:58:44;24.87;;;7.53;;
29466;SDS011;60968;37.490;-122.288;2022-07-24T14:01:45;21.87;;;7.20;;
29466;SDS011;60968;37.490;-122.288;2022-07-24T14:04:46;17.10;;;6.33;;
29466;SDS011;60968;37.490;-122.288;2022-07-24T14:07:47;19.97;;;6.97;;
29466;SDS011;60968;37.490;-122.288;2022-07-24T14:10:48;28.97;;;8.53;;
29466;SDS011;60968;37.490;-122.288;2022-07-24T14:13:49;18.97;;;7.13;;
29466;SDS011;60968;37.490;-122.288;2022-07-24T14:16:50;20.07;;;7.57;;
29466;SDS011;60968;37.490;-122.288;2022-07-24T14:19:51;24.50;;;6.97;;
29466;SDS011;60968;37.490;-122.288;2022-07-24T14:22:52;22.93;;;6.90;;
29466;SDS011;60968;37.490;-122.288;2022-07-24T14:25:52;18.37;;;6.37;;
29466;SDS011;60968;37.490;-122.288;2022-07-24T14:28:53;25.37;;;7.07;;
29466;SDS011;60968;37.490;-122.288;2022-07-24T14:31:54;15.47;;;6.93;;
29466;SDS011;60968;37.490;-122.288;2022-07-24T14:34:55;16.07;;;6.27;;
29466;SDS011;60968;37.490;-122.288;2022-07-24T14:37:56;18.47;;;6.70;;
29466;SDS011;60968;37.490;-122.288;2022-07-24T14:40:57;17.63;;;5.83;;
29466;SDS011;60968;37.490;-122.288;2022-07-24T14:43:58;13.47;;;5.50;;
29466;SDS011;60968;37.490;-122.288;2022-07-24T14:46:59;20.70;;;6.97;;
29466;SDS011;60968;37.490;-122.288;2022-07-24T14:50:00;15.53;;;6.50;;
29466;SDS011;60968;37.490;-122.288;2022-07-24T14:53:00;17.00;;;6.03;;
29466;SDS011;60968;37.490;-122.288;2022-07-24T14:56:01;19.00;;;4.83;;
29466;SDS011;60968;37.490;-122.288;2022-07-24T14:59:03;10.27;;;4.17;;
29466;SDS011;60968;37.490;-122.288;2022-07-24T15:02:04;11.37;;;4.07;;
29466;SDS011;60968;37.490;-122.288;2022-07-24T15:05:05;15.10;;;3.87;;
29466;SDS011;60968;37.490;-122.288;2022-07-24T15:08:06;12.20;;;4.33;;
29466;SDS011;60968;37.490;-122.288;2022-07-24T15:11:07;10.53;;;4.10;;
29466;SDS011;60968;37.490;-122.288;2022-07-24T15:14:08;12.93;;;5.03;;
29466;SDS011;60968;37.490;-122.288;2022-07-24T15:17:08;10.37;;;3.90;;
29466;SDS011;60968;37.490;-122.288;2022-07-24T15:20:09;6.37;;;3.07;;
29466;SDS011;60968;37.490;-122.288;2022-07-24T15:23:10;13.23;;;4.13;;
29466;SDS011;60968;37.490;-122.288;2022-07-24T15:26:11;8.03;;;3.87;;
29466;SDS011;60968;37.490;-122.288;2022-07-24T15:29:12;8.17;;;3.23;;
29466;SDS011;60968;37.490;-122.288;2022-07-24T15:32:13;16.43;;;4.53;;
29466;SDS011;60968;37.490;-122.288;2022-07-24T15:35:13;8.20;;;4.07;;
29466;SDS011;60968;37.490;-122.288;2022-07-24T15:38:14;9.80;;;3.90;;
29466;SDS011;60968;37.490;-122.288;2022-07-24T15:41:15;11.33;;;3.20;;
29466;SDS011;60968;37.490;-122.288;2022-07-24T15:44:16;8.30;;;2.93;;
29466;SDS011;60968;37.490;-122.288;2022-07-24T15:47:17;7.20;;;2.50;;
29466;SDS011;60968;37.490;-122.288;2022-07-24T15:50:18;8.47;;;2.83;;
29466;SDS011;60968;37.490;-122.288;2022-07-24T15:53:19;9.47;;;2.63;;
29466;SDS011;60968;37.490;-122.288;2022-07-24T15:56:20;4.77;;;2.70;;
29466;SDS011;60968;37.490;-122.288;2022-07-24T15:59:21;10.57;;;2.88;;
29466;SDS011;60968;37.490;-122.288;2022-07-24T16:02:22;9.32;;;3.70;;
29466;SDS011;60968;37.490;-122.288;2022-07-24T16:05:23;8.38;;;3.50;;
29466;SDS011;60968;37.490;-122.288;2022-07-24T16:08:24;10.93;;;4.15;;
29466;SDS011;60968;37.490;-122.288;2022-07-24T16:11:25;9.88;;;4.40;;
29466;SDS011;60968;37.490;-122.288;2022-07-24T16:14:25;12.38;;;5.15;;
29466;SDS011;60968;37.490;-122.288;2022-07-24T16:17:26;12.15;;;5.05;;
29466;SDS011;60968;37.490;-122.288;2022-07-24T16:20:27;6.50;;;3.15;;
29466;SDS011;60968;37.490;-122.288;2022-07-24T16:23:29;7.35;;;3.97;;
29466;SDS011;60968;37.490;-122.288;2022-07-24T16:26:29;6.60;;;3.65;;
29466;SDS011;60968;37.490;-122.288;2022-07-24T16:29:30;9.02;;;3.85;;
29466;SDS011;60968;37.490;-122.288;2022-07-24T16:32:31;7.72;;;4.32;;
29466;SDS011;60968;37.490;-122.288;2022-07-24T16:35:32;9.55;;;4.80;;
29466;SDS011;60968;37.490;-122.288;2022-07-24T16:38:33;8.80;;;4.70;;
29466;SDS011;60968;37.490;-122.288;2022-07-24T16:41:34;5.32;;;4.10;;
29466;SDS011;60968;37.490;-122.288;2022-07-24T16:44:35;7.63;;;4.82;;
29466;SDS011;60968;37.490;-122.288;2022-07-24T16:47:36;9.82;;;4.88;;
29466;SDS011;60968;37.490;-122.288;2022-07-24T16:50:36;10.75;;;5.30;;
29466;SDS011;60968;37.490;-122.288;2022-07-24T16:53:37;7.45;;;5.30;;
29466;SDS011;60968;37.490;-122.288;2022-07-24T16:56:38;7.93;;;5.68;;
29466;SDS011;60968;37.490;-122.288;2022-07-24T16:59:39;8.75;;;5.05;;
29466;SDS011;60968;37.490;-122.288;2022-07-24T17:02:40;10.38;;;5.38;;
29466;SDS011;60968;37.490;-122.288;2022-07-24T17:05:41;7.93;;;5.35;;
29466;SDS011;60968;37.490;-122.288;2022-07-24T17:08:42;9.57;;;5.13;;
29466;SDS011;60968;37.490;-122.288;2022-07-24T17:11:43;6.68;;;4.43;;
29466;SDS011;60968;37.490;-122.288;2022-07-24T17:14:45;7.78;;;5.68;;
29466;SDS011;60968;37.490;-122.288;2022-07-24T17:17:46;10.10;;;5.43;;
29466;SDS011;60968;37.490;-122.288;2022-07-24T17:20:47;7.90;;;4.95;;
29466;SDS011;60968;37.490;-122.288;2022-07-24T17:23:48;10.35;;;5.82;;
29466;SDS011;60968;37.490;-122.288;2022-07-24T17:26:49;6.57;;;5.03;;
29466;SDS011;60968;37.490;-122.288;2022-07-24T17:29:50;7.53;;;5.40;;
29466;SDS011;60968;37.490;-122.288;2022-07-24T17:32:51;9.68;;;5.45;;
29466;SDS011;60968;37.490;-122.288;2022-07-24T17:35:52;6.75;;;4.80;;